sensor_id;sensor_type;location;lat;lon;timestamp;temperature;humidity
30572;DHT22;17348;50.948;10.696;2023-01-30T00:01:20;0.30;99.90
30572;DHT22;17348;50.948;10.696;2023-01-30T00:04:22;0.30;99.90
30572;DHT22;17348;50.948;10.696;2023-01-30T00:07:25;0.30;99.90
30572;DHT22;17348;50.948;10.696;2023-01-30T00:10:27;0.30;99.90
30572;DHT22;17348;50.948;10.696;2023-01-30T00:13:31;0.30;99.90
30572;DHT22;17348;50.948;10.696;2023-01-30T00:16:33;0.40;99.90
30572;DHT22;17348;50.948;10.696;2023-01-30T00:19:35;0.40;99.90
30572;DHT22;17348;50.948;10.696;2023-01-30T00:22:37;0.40;99.90
30572;DHT22;17348;50.948;10.696;2023-01-30T00:25:43;0.40;99.90
30572;DHT22;17348;50.948;10.696;2023-01-30T00:28:47;0.30;99.90
30572;DHT22;17348;50.948;10.696;2023-01-30T00:31:49;0.30;99.90
30572;DHT22;17348;50.948;10.696;2023-01-30T00:34:52;0.20;99.90
30572;DHT22;17348;50.948;10.696;2023-01-30T00:37:55;0.20;99.90
30572;DHT22;17348;50.948;10.696;2023-01-30T00:40:57;0.30;99.90
30572;DHT22;17348;50.948;10.696;2023-01-30T00:44:01;0.30;99.90
30572;DHT22;17348;50.948;10.696;2023-01-30T00:47:21;0.40;99.90
30572;DHT22;17348;50.948;10.696;2023-01-30T00:50:24;0.50;99.90
30572;DHT22;17348;50.948;10.696;2023-01-30T00:53:42;0.70;99.90
30572;DHT22;17348;50.948;10.696;2023-01-30T00:56:44;0.80;99.90
30572;DHT22;17348;50.948;10.696;2023-01-30T00:59:48;0.90;99.90
30572;DHT22;17348;50.948;10.696;2023-01-30T01:02:50;1.00;99.90
30572;DHT22;17348;50.948;10.696;2023-01-30T01:05:52;1.00;99.90
30572;DHT22;17348;50.948;10.696;2023-01-30T01:08:56;1.00;99.90
30572;DHT22;17348;50.948;10.696;2023-01-30T01:11:59;1.00;99.90
30572;DHT22;17348;50.948;10.696;2023-01-30T01:15:03;0.90;99.90
30572;DHT22;17348;50.948;10.696;2023-01-30T01:18:05;0.80;99.90
30572;DHT22;17348;50.948;10.696;2023-01-30T01:21:07;0.80;99.90
30572;DHT22;17348;50.948;10.696;2023-01-30T01:24:12;0.70;99.90
30572;DHT22;17348;50.948;10.696;2023-01-30T01:27:14;0.70;99.90
30572;DHT22;17348;50.948;10.696;2023-01-30T01:30:19;0.70;99.90
30572;DHT22;17348;50.948;10.696;2023-01-30T01:33:22;0.70;99.90
30572;DHT22;17348;50.948;10.696;2023-01-30T01:36:27;0.70;99.90
30572;DHT22;17348;50.948;10.696;2023-01-30T01:39:29;0.80;99.90
30572;DHT22;17348;50.948;10.696;2023-01-30T01:42:45;0.90;99.90
30572;DHT22;17348;50.948;10.696;2023-01-30T01:45:52;1.10;99.90
30572;DHT22;17348;50.948;10.696;2023-01-30T01:48:57;1.10;99.90
30572;DHT22;17348;50.948;10.696;2023-01-30T01:52:03;1.20;99.90
30572;DHT22;17348;50.948;10.696;2023-01-30T01:55:06;1.30;99.90
30572;DHT22;17348;50.948;10.696;2023-01-30T01:58:11;1.40;99.90
30572;DHT22;17348;50.948;10.696;2023-01-30T02:01:16;1.40;99.90
30572;DHT22;17348;50.948;10.696;2023-01-30T02:04:19;1.40;99.90
30572;DHT22;17348;50.948;10.696;2023-01-30T02:07:50;1.50;99.90
30572;DHT22;17348;50.948;10.696;2023-01-30T02:10:57;1.50;99.90
30572;DHT22;17348;50.948;10.696;2023-01-30T02:14:01;1.50;99.90
30572;DHT22;17348;50.948;10.696;2023-01-30T02:17:05;1.60;99.90
30572;DHT22;17348;50.948;10.696;2023-01-30T02:20:16;1.60;99.90
30572;DHT22;17348;50.948;10.696;2023-01-30T02:30:36;1.70;99.90
30572;DHT22;17348;50.948;10.696;2023-01-30T02:33:43;1.70;99.90
30572;DHT22;17348;50.948;10.696;2023-01-30T02:36:56;1.70;99.90
30572;DHT22;17348;50.948;10.696;2023-01-30T02:40:13;1.80;99.90
30572;DHT22;17348;50.948;10.696;2023-01-30T02:43:25;1.80;99.90
30572;DHT22;17348;50.948;10.696;2023-01-30T02:46:36;1.90;99.90
30572;DHT22;17348;50.948;10.696;2023-01-30T02:49:41;1.90;99.90
30572;DHT22;17348;50.948;10.696;2023-01-30T02:52:46;1.90;99.90
30572;DHT22;17348;50.948;10.696;2023-01-30T02:55:49;2.10;99.90
30572;DHT22;17348;50.948;10.696;2023-01-30T02:58:55;2.00;99.90
30572;DHT22;17348;50.948;10.696;2023-01-30T03:02:25;2.10;99.90
30572;DHT22;17348;50.948;10.696;2023-01-30T03:05:43;2.10;99.90
30572;DHT22;17348;50.948;10.696;2023-01-30T03:08:56;2.10;99.90
30572;DHT22;17348;50.948;10.696;2023-01-30T03:12:06;2.10;99.90
30572;DHT22;17348;50.948;10.696;2023-01-30T03:15:15;2.10;99.90
30572;DHT22;17348;50.948;10.696;2023-01-30T03:18:20;2.20;99.90
30572;DHT22;17348;50.948;10.696;2023-01-30T03:21:22;2.10;99.90
30572;DHT22;17348;50.948;10.696;2023-01-30T03:24:25;2.20;99.90
30572;DHT22;17348;50.948;10.696;2023-01-30T03:27:27;2.20;99.90
30572;DHT22;17348;50.948;10.696;2023-01-30T03:30:30;2.20;99.90
30572;DHT22;17348;50.948;10.696;2023-01-30T03:33:34;2.30;99.90
30572;DHT22;17348;50.948;10.696;2023-01-30T03:36:36;2.30;99.90
30572;DHT22;17348;50.948;10.696;2023-01-30T03:39:38;2.30;99.90
30572;DHT22;17348;50.948;10.696;2023-01-30T03:42:40;2.40;99.90
30572;DHT22;17348;50.948;10.696;2023-01-30T03:45:43;2.40;99.90
30572;DHT22;17348;50.948;10.696;2023-01-30T03:48:46;2.50;99.90
30572;DHT22;17348;50.948;10.696;2023-01-30T03:51:49;2.50;99.90
30572;DHT22;17348;50.948;10.696;2023-01-30T03:54:51;2.50;99.90
30572;DHT22;17348;50.948;10.696;2023-01-30T03:57:54;2.60;99.90
30572;DHT22;17348;50.948;10.696;2023-01-30T04:00:57;2.60;99.90
30572;DHT22;17348;50.948;10.696;2023-01-30T04:04:01;2.60;99.90
30572;DHT22;17348;50.948;10.696;2023-01-30T04:07:03;2.60;99.90
30572;DHT22;17348;50.948;10.696;2023-01-30T04:10:06;2.60;99.90
30572;DHT22;17348;50.948;10.696;2023-01-30T04:13:09;2.60;99.90
30572;DHT22;17348;50.948;10.696;2023-01-30T04:16:16;2.60;99.90
30572;DHT22;17348;50.948;10.696;2023-01-30T04:19:21;2.70;99.90
30572;DHT22;17348;50.948;10.696;2023-01-30T04:22:23;2.60;99.90
30572;DHT22;17348;50.948;10.696;2023-01-30T04:25:25;2.80;99.90
30572;DHT22;17348;50.948;10.696;2023-01-30T04:28:27;2.80;99.90
30572;DHT22;17348;50.948;10.696;2023-01-30T04:31:30;2.70;99.90
30572;DHT22;17348;50.948;10.696;2023-01-30T04:34:33;2.80;99.90
30572;DHT22;17348;50.948;10.696;2023-01-30T04:37:36;2.90;99.90
30572;DHT22;17348;50.948;10.696;2023-01-30T04:40:38;2.80;99.90
30572;DHT22;17348;50.948;10.696;2023-01-30T04:43:40;2.80;99.90
30572;DHT22;17348;50.948;10.696;2023-01-30T04:46:43;2.80;99.90
30572;DHT22;17348;50.948;10.696;2023-01-30T04:49:46;2.80;99.90
30572;DHT22;17348;50.948;10.696;2023-01-30T04:52:48;2.80;99.90
30572;DHT22;17348;50.948;10.696;2023-01-30T04:55:51;2.80;99.90
30572;DHT22;17348;50.948;10.696;2023-01-30T04:58:53;2.90;99.90
30572;DHT22;17348;50.948;10.696;2023-01-30T05:01:56;2.90;99.90
30572;DHT22;17348;50.948;10.696;2023-01-30T05:04:59;2.90;99.90
30572;DHT22;17348;50.948;10.696;2023-01-30T05:08:02;2.90;99.90
30572;DHT22;17348;50.948;10.696;2023-01-30T05:11:04;2.90;99.90
30572;DHT22;17348;50.948;10.696;2023-01-30T05:14:07;2.90;99.90
30572;DHT22;17348;50.948;10.696;2023-01-30T05:17:09;2.90;99.90
30572;DHT22;17348;50.948;10.696;2023-01-30T05:20:13;3.00;99.90
30572;DHT22;17348;50.948;10.696;2023-01-30T05:23:15;3.00;99.90
30572;DHT22;17348;50.948;10.696;2023-01-30T05:26:18;3.10;99.90
30572;DHT22;17348;50.948;10.696;2023-01-30T05:29:20;3.00;99.90
30572;DHT22;17348;50.948;10.696;2023-01-30T05:32:22;3.00;99.90
30572;DHT22;17348;50.948;10.696;2023-01-30T05:35:26;3.00;99.90
30572;DHT22;17348;50.948;10.696;2023-01-30T05:38:29;3.00;99.90
30572;DHT22;17348;50.948;10.696;2023-01-30T05:41:31;3.00;99.90
30572;DHT22;17348;50.948;10.696;2023-01-30T05:44:33;2.90;99.90
30572;DHT22;17348;50.948;10.696;2023-01-30T05:47:36;3.00;99.90
30572;DHT22;17348;50.948;10.696;2023-01-30T05:50:39;2.90;99.90
30572;DHT22;17348;50.948;10.696;2023-01-30T05:53:42;2.90;99.90
30572;DHT22;17348;50.948;10.696;2023-01-30T05:56:47;3.00;99.90
30572;DHT22;17348;50.948;10.696;2023-01-30T05:59:50;3.00;99.90
30572;DHT22;17348;50.948;10.696;2023-01-30T06:02:52;3.00;99.90
30572;DHT22;17348;50.948;10.696;2023-01-30T06:05:55;3.00;99.90
30572;DHT22;17348;50.948;10.696;2023-01-30T06:08:58;3.00;99.90
30572;DHT22;17348;50.948;10.696;2023-01-30T06:12:00;3.10;99.90
30572;DHT22;17348;50.948;10.696;2023-01-30T06:15:03;3.10;99.90
30572;DHT22;17348;50.948;10.696;2023-01-30T06:18:05;3.10;99.90
30572;DHT22;17348;50.948;10.696;2023-01-30T06:21:09;3.10;99.90
30572;DHT22;17348;50.948;10.696;2023-01-30T06:24:11;3.10;99.90
30572;DHT22;17348;50.948;10.696;2023-01-30T06:27:13;3.10;99.90
30572;DHT22;17348;50.948;10.696;2023-01-30T06:30:16;3.20;99.90
30572;DHT22;17348;50.948;10.696;2023-01-30T06:33:19;3.20;99.90
30572;DHT22;17348;50.948;10.696;2023-01-30T06:36:23;3.20;99.90
30572;DHT22;17348;50.948;10.696;2023-01-30T06:39:25;3.20;99.90
30572;DHT22;17348;50.948;10.696;2023-01-30T06:42:27;3.30;99.90
30572;DHT22;17348;50.948;10.696;2023-01-30T06:45:30;3.20;99.90
30572;DHT22;17348;50.948;10.696;2023-01-30T06:48:32;3.20;99.90
30572;DHT22;17348;50.948;10.696;2023-01-30T06:51:36;3.20;99.90
30572;DHT22;17348;50.948;10.696;2023-01-30T06:54:38;3.20;99.90
30572;DHT22;17348;50.948;10.696;2023-01-30T06:57:41;3.20;99.90
30572;DHT22;17348;50.948;10.696;2023-01-30T07:00:43;3.20;99.90
30572;DHT22;17348;50.948;10.696;2023-01-30T07:03:46;3.20;99.90
30572;DHT22;17348;50.948;10.696;2023-01-30T07:06:49;3.10;99.90
30572;DHT22;17348;50.948;10.696;2023-01-30T07:09:52;3.10;99.90
30572;DHT22;17348;50.948;10.696;2023-01-30T07:12:54;3.10;99.90
30572;DHT22;17348;50.948;10.696;2023-01-30T07:15:56;3.10;99.90
30572;DHT22;17348;50.948;10.696;2023-01-30T07:18:59;3.10;99.90
30572;DHT22;17348;50.948;10.696;2023-01-30T07:22:02;3.10;99.90
30572;DHT22;17348;50.948;10.696;2023-01-30T07:25:06;3.10;99.90
30572;DHT22;17348;50.948;10.696;2023-01-30T07:28:09;3.10;99.90
30572;DHT22;17348;50.948;10.696;2023-01-30T07:31:11;3.20;99.90
30572;DHT22;17348;50.948;10.696;2023-01-30T07:34:13;3.10;99.90
30572;DHT22;17348;50.948;10.696;2023-01-30T07:37:17;3.20;99.90
30572;DHT22;17348;50.948;10.696;2023-01-30T07:40:20;3.20;99.90
30572;DHT22;17348;50.948;10.696;2023-01-30T07:43:23;3.20;99.90
30572;DHT22;17348;50.948;10.696;2023-01-30T07:46:25;3.20;99.90
30572;DHT22;17348;50.948;10.696;2023-01-30T07:49:34;3.20;99.90
30572;DHT22;17348;50.948;10.696;2023-01-30T07:52:38;3.20;99.90
30572;DHT22;17348;50.948;10.696;2023-01-30T07:55:40;3.30;99.90
30572;DHT22;17348;50.948;10.696;2023-01-30T07:58:43;3.30;99.90
30572;DHT22;17348;50.948;10.696;2023-01-30T08:01:45;3.30;99.90
30572;DHT22;17348;50.948;10.696;2023-01-30T08:04:47;3.30;99.90
30572;DHT22;17348;50.948;10.696;2023-01-30T08:07:53;3.40;99.90
30572;DHT22;17348;50.948;10.696;2023-01-30T08:10:56;3.30;99.90
30572;DHT22;17348;50.948;10.696;2023-01-30T08:13:58;3.30;99.90
30572;DHT22;17348;50.948;10.696;2023-01-30T08:17:00;3.40;99.90
30572;DHT22;17348;50.948;10.696;2023-01-30T08:20:03;3.40;99.90
30572;DHT22;17348;50.948;10.696;2023-01-30T08:23:08;3.50;99.90
30572;DHT22;17348;50.948;10.696;2023-01-30T08:26:10;3.50;99.90
30572;DHT22;17348;50.948;10.696;2023-01-30T08:29:12;3.50;99.90
30572;DHT22;17348;50.948;10.696;2023-01-30T08:32:14;3.50;99.90
30572;DHT22;17348;50.948;10.696;2023-01-30T08:35:17;3.60;99.90
30572;DHT22;17348;50.948;10.696;2023-01-30T08:38:21;3.50;99.90
30572;DHT22;17348;50.948;10.696;2023-01-30T08:41:23;3.50;99.90
30572;DHT22;17348;50.948;10.696;2023-01-30T08:44:27;3.50;99.90
30572;DHT22;17348;50.948;10.696;2023-01-30T08:47:30;3.60;99.90
30572;DHT22;17348;50.948;10.696;2023-01-30T08:50:33;3.50;99.90
30572;DHT22;17348;50.948;10.696;2023-01-30T08:53:36;3.60;99.90
30572;DHT22;17348;50.948;10.696;2023-01-30T08:56:39;3.60;99.90
30572;DHT22;17348;50.948;10.696;2023-01-30T08:59:41;3.60;99.90
30572;DHT22;17348;50.948;10.696;2023-01-30T09:02:44;3.60;99.90
30572;DHT22;17348;50.948;10.696;2023-01-30T09:05:46;3.60;99.90
30572;DHT22;17348;50.948;10.696;2023-01-30T09:08:50;3.70;99.90
30572;DHT22;17348;50.948;10.696;2023-01-30T09:11:52;3.70;99.90
30572;DHT22;17348;50.948;10.696;2023-01-30T09:14:54;3.70;99.90
30572;DHT22;17348;50.948;10.696;2023-01-30T09:17:58;3.90;99.90
30572;DHT22;17348;50.948;10.696;2023-01-30T09:21:04;4.10;99.90
30572;DHT22;17348;50.948;10.696;2023-01-30T09:24:08;4.10;99.90
30572;DHT22;17348;50.948;10.696;2023-01-30T09:27:10;4.10;99.90
30572;DHT22;17348;50.948;10.696;2023-01-30T09:30:13;4.00;99.90
30572;DHT22;17348;50.948;10.696;2023-01-30T09:33:15;4.00;99.90
30572;DHT22;17348;50.948;10.696;2023-01-30T09:36:20;3.90;99.90
30572;DHT22;17348;50.948;10.696;2023-01-30T09:39:23;3.90;99.90
30572;DHT22;17348;50.948;10.696;2023-01-30T09:45:58;4.00;99.90
30572;DHT22;17348;50.948;10.696;2023-01-30T09:49:08;4.10;99.90
30572;DHT22;17348;50.948;10.696;2023-01-30T09:52:25;4.30;99.90
30572;DHT22;17348;50.948;10.696;2023-01-30T09:55:31;4.30;99.90
30572;DHT22;17348;50.948;10.696;2023-01-30T09:58:41;4.20;99.90
30572;DHT22;17348;50.948;10.696;2023-01-30T10:01:47;4.10;99.90
30572;DHT22;17348;50.948;10.696;2023-01-30T10:04:53;4.10;99.90
30572;DHT22;17348;50.948;10.696;2023-01-30T10:08:04;4.10;99.90
30572;DHT22;17348;50.948;10.696;2023-01-30T10:11:21;4.00;99.90
30572;DHT22;17348;50.948;10.696;2023-01-30T10:18:24;4.00;99.90
30572;DHT22;17348;50.948;10.696;2023-01-30T10:21:37;4.00;99.90
30572;DHT22;17348;50.948;10.696;2023-01-30T10:24:51;4.00;99.90
30572;DHT22;17348;50.948;10.696;2023-01-30T10:28:00;4.00;99.90
30572;DHT22;17348;50.948;10.696;2023-01-30T10:31:07;3.90;99.90
30572;DHT22;17348;50.948;10.696;2023-01-30T10:34:14;3.90;99.90
30572;DHT22;17348;50.948;10.696;2023-01-30T10:37:25;3.80;99.90
30572;DHT22;17348;50.948;10.696;2023-01-30T10:40:32;3.80;99.90
30572;DHT22;17348;50.948;10.696;2023-01-30T10:43:40;3.80;99.90
30572;DHT22;17348;50.948;10.696;2023-01-30T10:46:53;3.80;99.90
30572;DHT22;17348;50.948;10.696;2023-01-30T10:50:00;3.80;99.90
30572;DHT22;17348;50.948;10.696;2023-01-30T10:53:12;3.90;99.90
30572;DHT22;17348;50.948;10.696;2023-01-30T10:56:21;3.90;99.90
30572;DHT22;17348;50.948;10.696;2023-01-30T10:59:40;3.90;99.90
30572;DHT22;17348;50.948;10.696;2023-01-30T11:03:08;4.00;99.90
30572;DHT22;17348;50.948;10.696;2023-01-30T11:06:12;3.90;99.90
30572;DHT22;17348;50.948;10.696;2023-01-30T11:09:16;3.90;99.90
30572;DHT22;17348;50.948;10.696;2023-01-30T11:12:19;3.80;99.90
30572;DHT22;17348;50.948;10.696;2023-01-30T11:15:22;3.80;99.90
30572;DHT22;17348;50.948;10.696;2023-01-30T11:18:25;3.80;99.90
30572;DHT22;17348;50.948;10.696;2023-01-30T11:21:29;3.80;99.90
30572;DHT22;17348;50.948;10.696;2023-01-30T11:24:40;3.90;99.90
30572;DHT22;17348;50.948;10.696;2023-01-30T11:27:43;4.00;99.90
30572;DHT22;17348;50.948;10.696;2023-01-30T11:30:56;4.10;99.90
30572;DHT22;17348;50.948;10.696;2023-01-30T11:34:02;4.20;99.90
30572;DHT22;17348;50.948;10.696;2023-01-30T11:37:14;4.30;99.90
30572;DHT22;17348;50.948;10.696;2023-01-30T11:40:25;4.40;99.90
30572;DHT22;17348;50.948;10.696;2023-01-30T11:43:28;4.50;99.90
30572;DHT22;17348;50.948;10.696;2023-01-30T11:46:33;4.50;99.90
30572;DHT22;17348;50.948;10.696;2023-01-30T11:49:40;4.40;99.90
30572;DHT22;17348;50.948;10.696;2023-01-30T11:52:44;4.40;99.90
30572;DHT22;17348;50.948;10.696;2023-01-30T11:55:47;4.40;99.90
30572;DHT22;17348;50.948;10.696;2023-01-30T11:58:54;4.50;99.90
30572;DHT22;17348;50.948;10.696;2023-01-30T12:02:18;4.60;99.90
30572;DHT22;17348;50.948;10.696;2023-01-30T12:05:29;4.80;99.90
30572;DHT22;17348;50.948;10.696;2023-01-30T12:08:36;4.90;99.90
30572;DHT22;17348;50.948;10.696;2023-01-30T12:11:41;5.00;99.90
30572;DHT22;17348;50.948;10.696;2023-01-30T12:14:47;5.00;99.90
30572;DHT22;17348;50.948;10.696;2023-01-30T12:17:58;5.10;99.90
30572;DHT22;17348;50.948;10.696;2023-01-30T12:21:05;5.10;99.90
30572;DHT22;17348;50.948;10.696;2023-01-30T12:24:18;5.00;99.90
30572;DHT22;17348;50.948;10.696;2023-01-30T12:27:25;4.90;99.90
30572;DHT22;17348;50.948;10.696;2023-01-30T12:30:34;4.80;99.90
30572;DHT22;17348;50.948;10.696;2023-01-30T12:33:39;4.80;99.90
30572;DHT22;17348;50.948;10.696;2023-01-30T12:36:44;4.70;99.90
30572;DHT22;17348;50.948;10.696;2023-01-30T12:39:58;4.80;99.90
30572;DHT22;17348;50.948;10.696;2023-01-30T12:47:00;4.90;99.90
30572;DHT22;17348;50.948;10.696;2023-01-30T12:50:22;4.90;99.90
30572;DHT22;17348;50.948;10.696;2023-01-30T12:53:36;5.00;99.90
30572;DHT22;17348;50.948;10.696;2023-01-30T12:56:49;5.00;99.90
30572;DHT22;17348;50.948;10.696;2023-01-30T13:00:03;5.10;99.90
30572;DHT22;17348;50.948;10.696;2023-01-30T13:03:18;5.10;99.90
30572;DHT22;17348;50.948;10.696;2023-01-30T13:06:39;5.20;99.90
30572;DHT22;17348;50.948;10.696;2023-01-30T13:09:58;5.30;99.90
30572;DHT22;17348;50.948;10.696;2023-01-30T13:13:10;5.30;99.90
30572;DHT22;17348;50.948;10.696;2023-01-30T13:16:22;5.40;99.90
30572;DHT22;17348;50.948;10.696;2023-01-30T13:19:31;5.40;99.90
30572;DHT22;17348;50.948;10.696;2023-01-30T13:22:42;5.40;99.90
30572;DHT22;17348;50.948;10.696;2023-01-30T13:25:53;5.40;99.90
30572;DHT22;17348;50.948;10.696;2023-01-30T13:29:01;5.20;99.90
30572;DHT22;17348;50.948;10.696;2023-01-30T13:32:12;5.00;99.90
30572;DHT22;17348;50.948;10.696;2023-01-30T13:35:18;4.80;99.90
30572;DHT22;17348;50.948;10.696;2023-01-30T13:38:24;4.70;99.90
30572;DHT22;17348;50.948;10.696;2023-01-30T13:41:32;4.70;99.90
30572;DHT22;17348;50.948;10.696;2023-01-30T13:44:41;4.60;99.90
30572;DHT22;17348;50.948;10.696;2023-01-30T13:47:50;4.50;99.90
30572;DHT22;17348;50.948;10.696;2023-01-30T13:54:56;4.50;99.90
30572;DHT22;17348;50.948;10.696;2023-01-30T13:58:07;4.40;99.90
30572;DHT22;17348;50.948;10.696;2023-01-30T14:01:12;4.30;99.90
30572;DHT22;17348;50.948;10.696;2023-01-30T14:04:42;4.20;99.90
30572;DHT22;17348;50.948;10.696;2023-01-30T14:07:45;4.00;99.90
30572;DHT22;17348;50.948;10.696;2023-01-30T14:10:49;3.90;99.90
30572;DHT22;17348;50.948;10.696;2023-01-30T14:13:52;3.90;99.90
30572;DHT22;17348;50.948;10.696;2023-01-30T14:17:06;4.00;99.90
30572;DHT22;17348;50.948;10.696;2023-01-30T14:20:14;4.00;99.90
30572;DHT22;17348;50.948;10.696;2023-01-30T14:23:23;4.10;99.90
30572;DHT22;17348;50.948;10.696;2023-01-30T14:27:20;4.40;99.90
30572;DHT22;17348;50.948;10.696;2023-01-30T14:30:35;4.50;99.90
30572;DHT22;17348;50.948;10.696;2023-01-30T14:33:48;4.60;99.90
30572;DHT22;17348;50.948;10.696;2023-01-30T14:36:51;4.70;99.90
30572;DHT22;17348;50.948;10.696;2023-01-30T14:39:55;4.80;99.90
30572;DHT22;17348;50.948;10.696;2023-01-30T14:43:32;4.80;99.90
30572;DHT22;17348;50.948;10.696;2023-01-30T14:46:43;4.80;99.90
30572;DHT22;17348;50.948;10.696;2023-01-30T14:49:47;4.90;99.90
30572;DHT22;17348;50.948;10.696;2023-01-30T14:52:53;4.90;99.90
30572;DHT22;17348;50.948;10.696;2023-01-30T14:56:00;4.90;99.90
30572;DHT22;17348;50.948;10.696;2023-01-30T14:59:15;4.90;99.90
30572;DHT22;17348;50.948;10.696;2023-01-30T15:02:23;4.90;99.90
30572;DHT22;17348;50.948;10.696;2023-01-30T15:05:30;4.90;99.90
30572;DHT22;17348;50.948;10.696;2023-01-30T15:08:33;4.90;99.90
30572;DHT22;17348;50.948;10.696;2023-01-30T15:11:36;4.90;99.90
30572;DHT22;17348;50.948;10.696;2023-01-30T15:14:46;4.90;99.90
30572;DHT22;17348;50.948;10.696;2023-01-30T15:21:29;4.90;99.90
30572;DHT22;17348;50.948;10.696;2023-01-30T15:28:14;4.80;99.90
30572;DHT22;17348;50.948;10.696;2023-01-30T15:31:22;4.80;99.90
30572;DHT22;17348;50.948;10.696;2023-01-30T15:34:27;4.70;99.90
30572;DHT22;17348;50.948;10.696;2023-01-30T15:37:32;4.70;99.90
30572;DHT22;17348;50.948;10.696;2023-01-30T15:40:35;4.60;99.90
30572;DHT22;17348;50.948;10.696;2023-01-30T15:47:41;4.60;99.90
30572;DHT22;17348;50.948;10.696;2023-01-30T15:50:49;4.60;99.90
30572;DHT22;17348;50.948;10.696;2023-01-30T15:53:54;4.50;99.90
30572;DHT22;17348;50.948;10.696;2023-01-30T15:56:59;4.50;99.90
30572;DHT22;17348;50.948;10.696;2023-01-30T16:00:03;4.50;99.90
30572;DHT22;17348;50.948;10.696;2023-01-30T16:03:13;4.50;99.90
30572;DHT22;17348;50.948;10.696;2023-01-30T16:06:28;4.50;99.90
30572;DHT22;17348;50.948;10.696;2023-01-30T16:09:32;4.40;99.90
30572;DHT22;17348;50.948;10.696;2023-01-30T16:12:35;4.50;99.90
30572;DHT22;17348;50.948;10.696;2023-01-30T16:15:43;4.50;99.90
30572;DHT22;17348;50.948;10.696;2023-01-30T16:18:49;4.50;99.90
30572;DHT22;17348;50.948;10.696;2023-01-30T16:21:55;4.60;99.90
30572;DHT22;17348;50.948;10.696;2023-01-30T16:24:58;4.70;99.90
30572;DHT22;17348;50.948;10.696;2023-01-30T16:28:01;4.70;99.90
30572;DHT22;17348;50.948;10.696;2023-01-30T16:31:06;4.80;99.90
30572;DHT22;17348;50.948;10.696;2023-01-30T16:34:24;4.60;99.90
30572;DHT22;17348;50.948;10.696;2023-01-30T16:37:28;4.60;99.90
30572;DHT22;17348;50.948;10.696;2023-01-30T16:40:43;4.50;99.90
30572;DHT22;17348;50.948;10.696;2023-01-30T16:43:46;4.50;99.90
30572;DHT22;17348;50.948;10.696;2023-01-30T16:46:50;4.50;99.90
30572;DHT22;17348;50.948;10.696;2023-01-30T16:49:56;4.40;99.90
30572;DHT22;17348;50.948;10.696;2023-01-30T16:52:58;4.40;99.90
30572;DHT22;17348;50.948;10.696;2023-01-30T16:56:02;4.40;99.90
30572;DHT22;17348;50.948;10.696;2023-01-30T16:59:11;4.30;99.90
30572;DHT22;17348;50.948;10.696;2023-01-30T17:02:24;4.30;99.90
30572;DHT22;17348;50.948;10.696;2023-01-30T17:05:36;4.30;99.90
30572;DHT22;17348;50.948;10.696;2023-01-30T17:08:47;4.20;99.90
30572;DHT22;17348;50.948;10.696;2023-01-30T17:11:49;4.10;99.90
30572;DHT22;17348;50.948;10.696;2023-01-30T17:15:24;4.10;99.90
30572;DHT22;17348;50.948;10.696;2023-01-30T17:18:27;4.00;99.90
30572;DHT22;17348;50.948;10.696;2023-01-30T17:21:35;4.00;99.90
30572;DHT22;17348;50.948;10.696;2023-01-30T17:24:38;3.90;99.90
30572;DHT22;17348;50.948;10.696;2023-01-30T17:27:41;3.80;99.90
30572;DHT22;17348;50.948;10.696;2023-01-30T17:30:43;3.80;99.90
30572;DHT22;17348;50.948;10.696;2023-01-30T17:33:46;3.70;99.90
30572;DHT22;17348;50.948;10.696;2023-01-30T17:36:51;3.70;99.90
30572;DHT22;17348;50.948;10.696;2023-01-30T17:39:54;3.60;99.90
30572;DHT22;17348;50.948;10.696;2023-01-30T17:42:56;3.60;99.90
30572;DHT22;17348;50.948;10.696;2023-01-30T17:45:59;3.50;99.90
30572;DHT22;17348;50.948;10.696;2023-01-30T17:49:02;3.50;99.90
30572;DHT22;17348;50.948;10.696;2023-01-30T17:52:12;3.50;99.90
30572;DHT22;17348;50.948;10.696;2023-01-30T17:55:14;3.50;99.90
30572;DHT22;17348;50.948;10.696;2023-01-30T17:58:17;3.50;99.90
30572;DHT22;17348;50.948;10.696;2023-01-30T18:01:20;3.50;99.90
30572;DHT22;17348;50.948;10.696;2023-01-30T18:04:22;3.50;99.90
30572;DHT22;17348;50.948;10.696;2023-01-30T18:07:27;3.50;99.90
30572;DHT22;17348;50.948;10.696;2023-01-30T18:10:30;3.60;99.90
30572;DHT22;17348;50.948;10.696;2023-01-30T18:13:32;3.50;99.90
30572;DHT22;17348;50.948;10.696;2023-01-30T18:16:35;3.50;99.90
30572;DHT22;17348;50.948;10.696;2023-01-30T18:19:37;3.50;99.90
30572;DHT22;17348;50.948;10.696;2023-01-30T18:22:41;3.50;99.90
30572;DHT22;17348;50.948;10.696;2023-01-30T18:25:43;3.50;99.90
30572;DHT22;17348;50.948;10.696;2023-01-30T18:28:46;3.50;99.90
30572;DHT22;17348;50.948;10.696;2023-01-30T18:31:49;3.50;99.90
30572;DHT22;17348;50.948;10.696;2023-01-30T18:34:51;3.60;99.90
30572;DHT22;17348;50.948;10.696;2023-01-30T18:37:55;3.60;99.90
30572;DHT22;17348;50.948;10.696;2023-01-30T18:40:57;3.60;99.90
30572;DHT22;17348;50.948;10.696;2023-01-30T18:44:01;3.60;99.90
30572;DHT22;17348;50.948;10.696;2023-01-30T18:47:04;3.60;99.90
30572;DHT22;17348;50.948;10.696;2023-01-30T18:50:07;3.60;99.90
30572;DHT22;17348;50.948;10.696;2023-01-30T18:53:11;3.70;99.90
30572;DHT22;17348;50.948;10.696;2023-01-30T18:56:15;3.70;99.90
30572;DHT22;17348;50.948;10.696;2023-01-30T18:59:18;3.70;99.90
30572;DHT22;17348;50.948;10.696;2023-01-30T19:02:20;3.60;99.90
30572;DHT22;17348;50.948;10.696;2023-01-30T19:05:22;3.60;99.90
30572;DHT22;17348;50.948;10.696;2023-01-30T19:08:26;3.60;99.90
30572;DHT22;17348;50.948;10.696;2023-01-30T19:11:28;3.50;99.90
30572;DHT22;17348;50.948;10.696;2023-01-30T19:14:48;3.50;99.90
30572;DHT22;17348;50.948;10.696;2023-01-30T19:17:50;3.50;99.90
30572;DHT22;17348;50.948;10.696;2023-01-30T19:20:53;3.50;99.90
30572;DHT22;17348;50.948;10.696;2023-01-30T19:23:57;3.40;99.90
30572;DHT22;17348;50.948;10.696;2023-01-30T19:27:01;3.40;99.90
30572;DHT22;17348;50.948;10.696;2023-01-30T19:30:04;3.40;99.90
30572;DHT22;17348;50.948;10.696;2023-01-30T19:33:07;3.40;99.90
30572;DHT22;17348;50.948;10.696;2023-01-30T19:36:10;3.40;99.90
30572;DHT22;17348;50.948;10.696;2023-01-30T19:39:14;3.40;99.90
30572;DHT22;17348;50.948;10.696;2023-01-30T19:42:16;3.40;99.90
30572;DHT22;17348;50.948;10.696;2023-01-30T19:45:19;3.40;99.90
30572;DHT22;17348;50.948;10.696;2023-01-30T19:48:21;3.40;99.90
30572;DHT22;17348;50.948;10.696;2023-01-30T19:51:25;3.40;99.90
30572;DHT22;17348;50.948;10.696;2023-01-30T19:54:29;3.50;99.90
30572;DHT22;17348;50.948;10.696;2023-01-30T19:57:31;3.60;99.90
30572;DHT22;17348;50.948;10.696;2023-01-30T20:00:33;3.60;99.90
30572;DHT22;17348;50.948;10.696;2023-01-30T20:03:36;3.60;99.90
30572;DHT22;17348;50.948;10.696;2023-01-30T20:06:41;3.60;99.90